PWSweather.com
Personal Weather Stations
Station Observations
SUBOTICARS
SuboticaYU

SuboticaYU

Lat: 46.1296717, Lon: 19.641551

Elevation: 361

Station Type: Nexus

http://sumeteo.info

High Low Average
Temperature 50.1°F10.1°C 30.4°F-0.9°C 39.7°F4.3°C
Dew Point 41.0°F5.0°C 27.8°F-2.3°C 34.1°F1.2°C
Winds 12.7 mph 20.4 kmh 2.3 mph 3.7 kmh 8.0 mph SE12.9 kmh SE
Wind Gusts 19.6 mph31.5 kmh 2.3 mph3.7 kmh 10.0 mph16.1 kmh
Humidity 92% 70% 81%
Pressure 29.43 in996.6 mb 29.32 in992.9 mb -
Precipitation 0.00 in0.0 mm - -
Hour Temp Dew Point Humidity Winds Wind Gusts Pressure Precip Precip Rate Daily Precip Total
12:00 AM 32.5°F0.3°C 29.7°F-1.3°C 89% 2.3 mph SSW3.7 kmh SSW 2.3 mph3.7 kmh 29.41 in995.9 mb - 0.00 in0.0 mm 0.00 in0.0 mm
12:10 AM 32.2°F0.1°C 29.0°F-1.7°C 88% 2.3 mph SSW3.7 kmh SSW 2.3 mph3.7 kmh 29.41 in995.9 mb - 0.00 in0.0 mm 0.00 in0.0 mm
12:15 AM 32.0°F0.0°C 28.8°F-1.8°C 88% 4.6 mph SSW7.4 kmh SSW 5.8 mph9.3 kmh 29.42 in996.3 mb - 0.00 in0.0 mm 0.00 in0.0 mm
12:20 AM 32.0°F0.0°C 29.1°F-1.6°C 89% 6.9 mph WSW11.1 kmh WSW 6.9 mph11.1 kmh 29.42 in996.3 mb - 0.00 in0.0 mm 0.00 in0.0 mm
12:25 AM 31.8°F-0.1°C 28.9°F-1.7°C 89% 5.8 mph SSW9.3 kmh SSW 5.8 mph9.3 kmh 29.42 in996.3 mb - 0.00 in0.0 mm 0.00 in0.0 mm
12:30 AM 31.4°F-0.3°C 28.6°F-1.9°C 89% 5.8 mph SSW9.3 kmh SSW 4.6 mph7.4 kmh 29.42 in996.3 mb - 0.00 in0.0 mm 0.00 in0.0 mm
12:35 AM 31.1°F-0.5°C 28.2°F-2.1°C 89% 4.6 mph SSW7.4 kmh SSW 6.9 mph11.1 kmh 29.42 in996.3 mb - 0.00 in0.0 mm 0.00 in0.0 mm
12:40 AM 30.9°F-0.6°C 28.1°F-2.2°C 89% 5.8 mph SSW9.3 kmh SSW 6.9 mph11.1 kmh 29.42 in996.3 mb - 0.00 in0.0 mm 0.00 in0.0 mm
12:45 AM 30.6°F-0.8°C 28.0°F-2.2°C 90% 5.8 mph SSW9.3 kmh SSW 6.9 mph11.1 kmh 29.42 in996.3 mb - 0.00 in0.0 mm 0.00 in0.0 mm
12:50 AM 30.6°F-0.8°C 28.0°F-2.2°C 90% 5.8 mph SW9.3 kmh SW 6.9 mph11.1 kmh 29.42 in996.3 mb - 0.00 in0.0 mm 0.00 in0.0 mm
12:55 AM 30.5°F-0.8°C 27.9°F-2.3°C 90% 5.8 mph SSW9.3 kmh SSW 6.9 mph11.1 kmh 29.42 in996.3 mb - 0.00 in0.0 mm 0.00 in0.0 mm
01:00 AM 30.4°F-0.9°C 27.8°F-2.3°C 90% 4.6 mph SSW7.4 kmh SSW 8.1 mph13.0 kmh 29.42 in996.3 mb - 0.00 in0.0 mm 0.00 in0.0 mm
01:10 AM 30.4°F-0.9°C 28.1°F-2.2°C 91% 3.5 mph SSW5.6 kmh SSW 4.6 mph7.4 kmh 29.42 in996.3 mb - 0.00 in0.0 mm 0.00 in0.0 mm
01:15 AM 30.6°F-0.8°C 28.2°F-2.1°C 91% 4.6 mph SSW7.4 kmh SSW 4.6 mph7.4 kmh 29.41 in995.9 mb - 0.00 in0.0 mm 0.00 in0.0 mm
01:20 AM 30.6°F-0.8°C 28.2°F-2.1°C 91% 3.5 mph SSW5.6 kmh SSW 4.6 mph7.4 kmh 29.41 in995.9 mb - 0.00 in0.0 mm 0.00 in0.0 mm
01:25 AM 30.6°F-0.8°C 28.2°F-2.1°C 91% 4.6 mph SSW7.4 kmh SSW 5.8 mph9.3 kmh 29.41 in995.9 mb - 0.00 in0.0 mm 0.00 in0.0 mm
01:30 AM 30.7°F-0.7°C 28.7°F-1.8°C 92% 3.5 mph SSW5.6 kmh SSW 4.6 mph7.4 kmh 29.42 in996.3 mb - 0.00 in0.0 mm 0.00 in0.0 mm
01:35 AM 30.7°F-0.7°C 28.4°F-2.0°C 91% 4.6 mph SSW7.4 kmh SSW 5.8 mph9.3 kmh 29.42 in996.3 mb - 0.00 in0.0 mm 0.00 in0.0 mm
01:40 AM 30.6°F-0.8°C 28.5°F-1.9°C 92% 3.5 mph SSW5.6 kmh SSW 4.6 mph7.4 kmh 29.42 in996.3 mb - 0.00 in0.0 mm 0.00 in0.0 mm
01:45 AM 30.6°F-0.8°C 28.5°F-1.9°C 92% 4.6 mph SW7.4 kmh SW 5.8 mph9.3 kmh 29.43 in996.6 mb - 0.00 in0.0 mm 0.00 in0.0 mm
01:50 AM 30.6°F-0.8°C 28.2°F-2.1°C 91% 5.8 mph SSW9.3 kmh SSW 8.1 mph13.0 kmh 29.43 in996.6 mb - 0.00 in0.0 mm 0.00 in0.0 mm
01:55 AM 30.4°F-0.9°C 28.1°F-2.2°C 91% 5.8 mph SSW9.3 kmh SSW 8.1 mph13.0 kmh 29.43 in996.6 mb - 0.00 in0.0 mm 0.00 in0.0 mm
02:00 AM 30.4°F-0.9°C 28.1°F-2.2°C 91% 5.8 mph SSW9.3 kmh SSW 4.6 mph7.4 kmh 29.43 in996.6 mb - 0.00 in0.0 mm 0.00 in0.0 mm
02:10 AM 30.4°F-0.9°C 28.1°F-2.2°C 91% 4.6 mph SSW7.4 kmh SSW 4.6 mph7.4 kmh 29.43 in996.6 mb - 0.00 in0.0 mm 0.00 in0.0 mm
02:15 AM 30.4°F-0.9°C 28.1°F-2.2°C 91% 3.5 mph SSW5.6 kmh SSW 3.5 mph5.6 kmh 29.43 in996.6 mb - 0.00 in0.0 mm 0.00 in0.0 mm
02:20 AM 30.4°F-0.9°C 28.1°F-2.2°C 91% 4.6 mph SSW7.4 kmh SSW 5.8 mph9.3 kmh 29.43 in996.6 mb - 0.00 in0.0 mm 0.00 in0.0 mm
02:25 AM 30.4°F-0.9°C 28.1°F-2.2°C 91% 3.5 mph SW5.6 kmh SW 4.6 mph7.4 kmh 29.43 in996.6 mb - 0.00 in0.0 mm 0.00 in0.0 mm
02:30 AM 30.4°F-0.9°C 28.1°F-2.2°C 91% 3.5 mph SSW5.6 kmh SSW 3.5 mph5.6 kmh 29.43 in996.6 mb - 0.00 in0.0 mm 0.00 in0.0 mm
02:35 AM 30.6°F-0.8°C 28.2°F-2.1°C 91% 2.3 mph SSW3.7 kmh SSW 3.5 mph5.6 kmh 29.43 in996.6 mb - 0.00 in0.0 mm 0.00 in0.0 mm
02:40 AM 30.6°F-0.8°C 28.2°F-2.1°C 91% 3.5 mph SSW5.6 kmh SSW 2.3 mph3.7 kmh 29.43 in996.6 mb - 0.00 in0.0 mm 0.00 in0.0 mm
02:45 AM 30.6°F-0.8°C 28.2°F-2.1°C 91% 3.5 mph S5.6 kmh S 3.5 mph5.6 kmh 29.42 in996.3 mb - 0.00 in0.0 mm 0.00 in0.0 mm
02:50 AM 30.6°F-0.8°C 28.2°F-2.1°C 91% 2.3 mph S3.7 kmh S 3.5 mph5.6 kmh 29.42 in996.3 mb - 0.00 in0.0 mm 0.00 in0.0 mm
02:55 AM 30.6°F-0.8°C 28.2°F-2.1°C 91% 4.6 mph S7.4 kmh S 4.6 mph7.4 kmh 29.42 in996.3 mb - 0.00 in0.0 mm 0.00 in0.0 mm
03:00 AM 30.6°F-0.8°C 28.2°F-2.1°C 91% 3.5 mph SSE5.6 kmh SSE 3.5 mph5.6 kmh 29.42 in996.3 mb - 0.00 in0.0 mm 0.00 in0.0 mm
03:10 AM 30.6°F-0.8°C 28.2°F-2.1°C 91% 3.5 mph S5.6 kmh S 3.5 mph5.6 kmh 29.42 in996.3 mb - 0.00 in0.0 mm 0.00 in0.0 mm
03:15 AM 30.6°F-0.8°C 28.2°F-2.1°C 91% 3.5 mph SSE5.6 kmh SSE 3.5 mph5.6 kmh 29.42 in996.3 mb - 0.00 in0.0 mm 0.00 in0.0 mm
03:20 AM 30.7°F-0.7°C 28.4°F-2.0°C 91% 2.3 mph SE3.7 kmh SE 3.5 mph5.6 kmh 29.42 in996.3 mb - 0.00 in0.0 mm 0.00 in0.0 mm
03:25 AM 30.7°F-0.7°C 28.4°F-2.0°C 91% 3.5 mph SE5.6 kmh SE 3.5 mph5.6 kmh 29.42 in996.3 mb - 0.00 in0.0 mm 0.00 in0.0 mm
03:30 AM 30.7°F-0.7°C 28.4°F-2.0°C 91% 3.5 mph SSE5.6 kmh SSE 4.6 mph7.4 kmh 29.41 in995.9 mb - 0.00 in0.0 mm 0.00 in0.0 mm
03:35 AM 30.9°F-0.6°C 28.6°F-1.9°C 91% 3.5 mph SE5.6 kmh SE 3.5 mph5.6 kmh 29.41 in995.9 mb - 0.00 in0.0 mm 0.00 in0.0 mm
03:40 AM 30.9°F-0.6°C 28.6°F-1.9°C 91% 5.8 mph SE9.3 kmh SE 5.8 mph9.3 kmh 29.41 in995.9 mb - 0.00 in0.0 mm 0.00 in0.0 mm
03:45 AM 31.1°F-0.5°C 28.8°F-1.8°C 91% 4.6 mph SSE7.4 kmh SSE 4.6 mph7.4 kmh 29.41 in995.9 mb - 0.00 in0.0 mm 0.00 in0.0 mm
03:50 AM 31.1°F-0.5°C 28.8°F-1.8°C 91% 4.6 mph SE7.4 kmh SE 5.8 mph9.3 kmh 29.41 in995.9 mb - 0.00 in0.0 mm 0.00 in0.0 mm
03:55 AM 31.1°F-0.5°C 28.8°F-1.8°C 91% 5.8 mph SE9.3 kmh SE 8.1 mph13.0 kmh 29.41 in995.9 mb - 0.00 in0.0 mm 0.00 in0.0 mm
04:00 AM 31.3°F-0.4°C 29.0°F-1.7°C 91% 4.6 mph ESE7.4 kmh ESE 5.8 mph9.3 kmh 29.40 in995.6 mb - 0.00 in0.0 mm 0.00 in0.0 mm
04:10 AM 31.5°F-0.3°C 29.1°F-1.6°C 91% 5.8 mph SE9.3 kmh SE 5.8 mph9.3 kmh 29.40 in995.6 mb - 0.00 in0.0 mm 0.00 in0.0 mm
04:15 AM 31.5°F-0.3°C 29.1°F-1.6°C 91% 5.8 mph ESE9.3 kmh ESE 6.9 mph11.1 kmh 29.41 in995.9 mb - 0.00 in0.0 mm 0.00 in0.0 mm
04:20 AM 31.5°F-0.3°C 29.1°F-1.6°C 91% 5.8 mph SSE9.3 kmh SSE 5.8 mph9.3 kmh 29.41 in995.9 mb - 0.00 in0.0 mm 0.00 in0.0 mm
04:25 AM 31.6°F-0.2°C 29.3°F-1.5°C 91% 6.9 mph ESE11.1 kmh ESE 6.9 mph11.1 kmh 29.41 in995.9 mb - 0.00 in0.0 mm 0.00 in0.0 mm
04:30 AM 31.6°F-0.2°C 29.3°F-1.5°C 91% 6.9 mph SE11.1 kmh SE 8.1 mph13.0 kmh 29.41 in995.9 mb - 0.00 in0.0 mm 0.00 in0.0 mm
04:35 AM 31.6°F-0.2°C 29.3°F-1.5°C 91% 8.1 mph SE13.0 kmh SE 9.2 mph14.8 kmh 29.41 in995.9 mb - 0.00 in0.0 mm 0.00 in0.0 mm
04:40 AM 31.6°F-0.2°C 29.3°F-1.5°C 91% 5.8 mph SE9.3 kmh SE 8.1 mph13.0 kmh 29.41 in995.9 mb - 0.00 in0.0 mm 0.00 in0.0 mm
04:45 AM 31.6°F-0.2°C 29.3°F-1.5°C 91% 10.4 mph SE16.7 kmh SE 10.4 mph16.7 kmh 29.41 in995.9 mb - 0.00 in0.0 mm 0.00 in0.0 mm
04:50 AM 31.6°F-0.2°C 29.3°F-1.5°C 91% 6.9 mph SE11.1 kmh SE 9.2 mph14.8 kmh 29.41 in995.9 mb - 0.00 in0.0 mm 0.00 in0.0 mm
04:55 AM 31.6°F-0.2°C 29.3°F-1.5°C 91% 6.9 mph SSE11.1 kmh SSE 8.1 mph13.0 kmh 29.41 in995.9 mb - 0.00 in0.0 mm 0.00 in0.0 mm
05:00 AM 31.6°F-0.2°C 29.3°F-1.5°C 91% 6.9 mph SE11.1 kmh SE 9.2 mph14.8 kmh 29.40 in995.6 mb - 0.00 in0.0 mm 0.00 in0.0 mm
05:10 AM 31.6°F-0.2°C 29.0°F-1.7°C 90% 6.9 mph E11.1 kmh E 10.4 mph16.7 kmh 29.40 in995.6 mb - 0.00 in0.0 mm 0.00 in0.0 mm
05:15 AM 31.6°F-0.2°C 29.0°F-1.7°C 90% 6.9 mph SE11.1 kmh SE 8.1 mph13.0 kmh 29.40 in995.6 mb - 0.00 in0.0 mm 0.00 in0.0 mm
05:20 AM 31.6°F-0.2°C 29.0°F-1.7°C 90% 8.1 mph ESE13.0 kmh ESE 11.5 mph18.5 kmh 29.40 in995.6 mb - 0.00 in0.0 mm 0.00 in0.0 mm
05:25 AM 31.6°F-0.2°C 29.0°F-1.7°C 90% 8.1 mph ESE13.0 kmh ESE 9.2 mph14.8 kmh 29.40 in995.6 mb - 0.00 in0.0 mm 0.00 in0.0 mm
05:30 AM 31.6°F-0.2°C 29.0°F-1.7°C 90% 8.1 mph SE13.0 kmh SE 9.2 mph14.8 kmh 29.40 in995.6 mb - 0.00 in0.0 mm 0.00 in0.0 mm
05:35 AM 31.6°F-0.2°C 29.0°F-1.7°C 90% 8.1 mph S13.0 kmh S 12.7 mph20.4 kmh 29.40 in995.6 mb - 0.00 in0.0 mm 0.00 in0.0 mm
05:40 AM 31.6°F-0.2°C 29.0°F-1.7°C 90% 8.1 mph ESE13.0 kmh ESE 9.2 mph14.8 kmh 29.40 in995.6 mb - 0.00 in0.0 mm 0.00 in0.0 mm
05:45 AM 31.6°F-0.2°C 29.0°F-1.7°C 90% 6.9 mph SE11.1 kmh SE 8.1 mph13.0 kmh 29.40 in995.6 mb - 0.00 in0.0 mm 0.00 in0.0 mm
05:50 AM 31.6°F-0.2°C 29.0°F-1.7°C 90% 6.9 mph SE11.1 kmh SE 9.2 mph14.8 kmh 29.40 in995.6 mb - 0.00 in0.0 mm 0.00 in0.0 mm
05:55 AM 31.6°F-0.2°C 29.0°F-1.7°C 90% 9.2 mph ESE14.8 kmh ESE 10.4 mph16.7 kmh 29.40 in995.6 mb - 0.00 in0.0 mm 0.00 in0.0 mm
06:00 AM 31.6°F-0.2°C 29.0°F-1.7°C 90% 8.1 mph SE13.0 kmh SE 8.1 mph13.0 kmh 29.40 in995.6 mb - 0.00 in0.0 mm 0.00 in0.0 mm
06:10 AM 31.6°F-0.2°C 29.3°F-1.5°C 91% 8.1 mph ESE13.0 kmh ESE 6.9 mph11.1 kmh 29.40 in995.6 mb - 0.00 in0.0 mm 0.00 in0.0 mm
06:15 AM 31.6°F-0.2°C 29.3°F-1.5°C 91% 9.2 mph SE14.8 kmh SE 12.7 mph20.4 kmh 29.41 in995.9 mb - 0.00 in0.0 mm 0.00 in0.0 mm
06:20 AM 31.6°F-0.2°C 29.3°F-1.5°C 91% 6.9 mph SSE11.1 kmh SSE 9.2 mph14.8 kmh 29.41 in995.9 mb - 0.00 in0.0 mm 0.00 in0.0 mm
06:25 AM 31.6°F-0.2°C 29.3°F-1.5°C 91% 8.1 mph SE13.0 kmh SE 11.5 mph18.5 kmh 29.41 in995.9 mb - 0.00 in0.0 mm 0.00 in0.0 mm
06:30 AM 31.8°F-0.1°C 29.5°F-1.4°C 91% 5.8 mph SE9.3 kmh SE 8.1 mph13.0 kmh 29.41 in995.9 mb - 0.00 in0.0 mm 0.00 in0.0 mm
06:35 AM 31.8°F-0.1°C 29.5°F-1.4°C 91% 9.2 mph ESE14.8 kmh ESE 10.4 mph16.7 kmh 29.41 in995.9 mb - 0.00 in0.0 mm 0.00 in0.0 mm
06:40 AM 31.8°F-0.1°C 29.5°F-1.4°C 91% 8.1 mph SE13.0 kmh SE 9.2 mph14.8 kmh 29.41 in995.9 mb - 0.00 in0.0 mm 0.00 in0.0 mm
06:45 AM 31.8°F-0.1°C 29.5°F-1.4°C 91% 8.1 mph ESE13.0 kmh ESE 10.4 mph16.7 kmh 29.41 in995.9 mb - 0.00 in0.0 mm 0.00 in0.0 mm
06:50 AM 31.8°F-0.1°C 29.5°F-1.4°C 91% 9.2 mph ESE14.8 kmh ESE 11.5 mph18.5 kmh 29.41 in995.9 mb - 0.00 in0.0 mm 0.00 in0.0 mm
06:55 AM 32.0°F0.0°C 29.7°F-1.3°C 91% 6.9 mph E11.1 kmh E 9.2 mph14.8 kmh 29.41 in995.9 mb - 0.00 in0.0 mm 0.00 in0.0 mm
07:00 AM 32.0°F0.0°C 29.7°F-1.3°C 91% 6.9 mph ESE11.1 kmh ESE 8.1 mph13.0 kmh 29.41 in995.9 mb - 0.00 in0.0 mm 0.00 in0.0 mm
07:10 AM 32.0°F0.0°C 29.7°F-1.3°C 91% 9.2 mph SE14.8 kmh SE 10.4 mph16.7 kmh 29.41 in995.9 mb - 0.00 in0.0 mm 0.00 in0.0 mm
07:15 AM 32.0°F0.0°C 29.7°F-1.3°C 91% 8.1 mph ESE13.0 kmh ESE 9.2 mph14.8 kmh 29.42 in996.3 mb - 0.00 in0.0 mm 0.00 in0.0 mm
07:20 AM 32.0°F0.0°C 29.7°F-1.3°C 91% 10.4 mph SE16.7 kmh SE 10.4 mph16.7 kmh 29.42 in996.3 mb - 0.00 in0.0 mm 0.00 in0.0 mm
07:25 AM 32.0°F0.0°C 29.7°F-1.3°C 91% 9.2 mph ESE14.8 kmh ESE 9.2 mph14.8 kmh 29.42 in996.3 mb - 0.00 in0.0 mm 0.00 in0.0 mm
07:30 AM 32.0°F0.0°C 29.7°F-1.3°C 91% 8.1 mph ESE13.0 kmh ESE 8.1 mph13.0 kmh 29.41 in995.9 mb - 0.00 in0.0 mm 0.00 in0.0 mm
07:35 AM 32.0°F0.0°C 29.7°F-1.3°C 91% 5.8 mph ESE9.3 kmh ESE 6.9 mph11.1 kmh 29.41 in995.9 mb - 0.00 in0.0 mm 0.00 in0.0 mm
07:40 AM 32.0°F0.0°C 29.7°F-1.3°C 91% 6.9 mph ESE11.1 kmh ESE 8.1 mph13.0 kmh 29.41 in995.9 mb - 0.00 in0.0 mm 0.00 in0.0 mm
07:45 AM 32.0°F0.0°C 29.9°F-1.2°C 92% 6.9 mph E11.1 kmh E 8.1 mph13.0 kmh 29.41 in995.9 mb - 0.00 in0.0 mm 0.00 in0.0 mm
07:50 AM 32.0°F0.0°C 29.9°F-1.2°C 92% 6.9 mph E11.1 kmh E 8.1 mph13.0 kmh 29.41 in995.9 mb - 0.00 in0.0 mm 0.00 in0.0 mm
07:55 AM 32.0°F0.0°C 29.9°F-1.2°C 92% 8.1 mph ESE13.0 kmh ESE 8.1 mph13.0 kmh 29.41 in995.9 mb - 0.00 in0.0 mm 0.00 in0.0 mm
08:00 AM 32.2°F0.1°C 30.1°F-1.1°C 92% 9.2 mph ESE14.8 kmh ESE 11.5 mph18.5 kmh 29.41 in995.9 mb - 0.00 in0.0 mm 0.00 in0.0 mm
08:10 AM 32.3°F0.2°C 30.3°F-0.9°C 92% 6.9 mph SE11.1 kmh SE 10.4 mph16.7 kmh 29.41 in995.9 mb - 0.00 in0.0 mm 0.00 in0.0 mm
08:15 AM 32.4°F0.2°C 30.3°F-0.9°C 92% 8.1 mph ESE13.0 kmh ESE 11.5 mph18.5 kmh 29.41 in995.9 mb - 0.00 in0.0 mm 0.00 in0.0 mm
08:20 AM 32.4°F0.2°C 30.3°F-0.9°C 92% 6.9 mph ESE11.1 kmh ESE 8.1 mph13.0 kmh 29.41 in995.9 mb - 0.00 in0.0 mm 0.00 in0.0 mm
08:25 AM 32.5°F0.3°C 30.2°F-1.0°C 91% 10.4 mph ESE16.7 kmh ESE 12.7 mph20.4 kmh 29.41 in995.9 mb - 0.00 in0.0 mm 0.00 in0.0 mm
08:30 AM 32.5°F0.3°C 30.2°F-1.0°C 91% 9.2 mph ESE14.8 kmh ESE 9.2 mph14.8 kmh 29.41 in995.9 mb - 0.00 in0.0 mm 0.00 in0.0 mm
08:35 AM 32.7°F0.4°C 30.4°F-0.9°C 91% 8.1 mph ESE13.0 kmh ESE 9.2 mph14.8 kmh 29.41 in995.9 mb - 0.00 in0.0 mm 0.00 in0.0 mm
08:40 AM 32.7°F0.4°C 30.4°F-0.9°C 91% 10.4 mph ESE16.7 kmh ESE 11.5 mph18.5 kmh 29.41 in995.9 mb - 0.00 in0.0 mm 0.00 in0.0 mm
08:45 AM 32.9°F0.5°C 30.6°F-0.8°C 91% 9.2 mph SE14.8 kmh SE 11.5 mph18.5 kmh 29.41 in995.9 mb - 0.00 in0.0 mm 0.00 in0.0 mm
08:50 AM 32.9°F0.5°C 30.6°F-0.8°C 91% 10.4 mph ESE16.7 kmh ESE 12.7 mph20.4 kmh 29.41 in995.9 mb - 0.00 in0.0 mm 0.00 in0.0 mm
08:55 AM 33.3°F0.7°C 30.9°F-0.6°C 91% 9.2 mph SE14.8 kmh SE 11.5 mph18.5 kmh 29.41 in995.9 mb - 0.00 in0.0 mm 0.00 in0.0 mm
09:00 AM 33.3°F0.7°C 30.9°F-0.6°C 91% 8.1 mph SE13.0 kmh SE 9.2 mph14.8 kmh 29.41 in995.9 mb - 0.00 in0.0 mm 0.00 in0.0 mm
09:10 AM 33.4°F0.8°C 31.1°F-0.5°C 91% 9.2 mph ESE14.8 kmh ESE 12.7 mph20.4 kmh 29.41 in995.9 mb - 0.00 in0.0 mm 0.00 in0.0 mm
09:15 AM 33.6°F0.9°C 31.3°F-0.4°C 91% 6.9 mph SE11.1 kmh SE 9.2 mph14.8 kmh 29.41 in995.9 mb - 0.00 in0.0 mm 0.00 in0.0 mm
09:20 AM 33.8°F1.0°C 31.5°F-0.3°C 91% 11.5 mph ESE18.5 kmh ESE 13.8 mph22.2 kmh 29.41 in995.9 mb - 0.00 in0.0 mm 0.00 in0.0 mm
09:25 AM 34.0°F1.1°C 31.6°F-0.2°C 91% 8.1 mph SE13.0 kmh SE 5.8 mph9.3 kmh 29.41 in995.9 mb - 0.00 in0.0 mm 0.00 in0.0 mm
09:30 AM 34.3°F1.3°C 32.0°F0.0°C 91% 9.2 mph E14.8 kmh E 10.4 mph16.7 kmh 29.40 in995.6 mb - 0.00 in0.0 mm 0.00 in0.0 mm
09:35 AM 34.3°F1.3°C 32.0°F0.0°C 91% 9.2 mph SE14.8 kmh SE 11.5 mph18.5 kmh 29.40 in995.6 mb - 0.00 in0.0 mm 0.00 in0.0 mm
09:40 AM 34.7°F1.5°C 32.3°F0.2°C 91% 10.4 mph SE16.7 kmh SE 12.7 mph20.4 kmh 29.40 in995.6 mb - 0.00 in0.0 mm 0.00 in0.0 mm
09:45 AM 34.9°F1.6°C 32.2°F0.1°C 90% 9.2 mph ESE14.8 kmh ESE 12.7 mph20.4 kmh 29.40 in995.6 mb - 0.00 in0.0 mm 0.00 in0.0 mm
09:50 AM 35.1°F1.7°C 32.4°F0.2°C 90% 9.2 mph ESE14.8 kmh ESE 13.8 mph22.2 kmh 29.40 in995.6 mb - 0.00 in0.0 mm 0.00 in0.0 mm
09:55 AM 35.6°F2.0°C 33.0°F0.6°C 90% 11.5 mph SE18.5 kmh SE 13.8 mph22.2 kmh 29.40 in995.6 mb - 0.00 in0.0 mm 0.00 in0.0 mm
10:00 AM 36.3°F2.4°C 33.7°F0.9°C 90% 8.1 mph SSE13.0 kmh SSE 9.2 mph14.8 kmh 29.40 in995.6 mb - 0.00 in0.0 mm 0.00 in0.0 mm
10:10 AM 36.6°F2.6°C 33.7°F0.9°C 89% 8.1 mph SE13.0 kmh SE 11.5 mph18.5 kmh 29.40 in995.6 mb - 0.00 in0.0 mm 0.00 in0.0 mm
10:15 AM 36.5°F2.5°C 33.6°F0.9°C 89% 10.4 mph ESE16.7 kmh ESE 10.4 mph16.7 kmh 29.41 in995.9 mb - 0.00 in0.0 mm 0.00 in0.0 mm
10:20 AM 36.5°F2.5°C 33.6°F0.9°C 89% 10.4 mph E16.7 kmh E 8.1 mph13.0 kmh 29.41 in995.9 mb - 0.00 in0.0 mm 0.00 in0.0 mm
10:25 AM 36.7°F2.6°C 33.7°F0.9°C 89% 9.2 mph ESE14.8 kmh ESE 8.1 mph13.0 kmh 29.41 in995.9 mb - 0.00 in0.0 mm 0.00 in0.0 mm
10:30 AM 36.9°F2.7°C 33.6°F0.9°C 88% 9.2 mph ESE14.8 kmh ESE 10.4 mph16.7 kmh 29.40 in995.6 mb - 0.00 in0.0 mm 0.00 in0.0 mm
10:35 AM 37.2°F2.9°C 34.0°F1.1°C 88% 9.2 mph SE14.8 kmh SE 10.4 mph16.7 kmh 29.40 in995.6 mb - 0.00 in0.0 mm 0.00 in0.0 mm
10:40 AM 37.3°F2.9°C 34.1°F1.2°C 88% 6.9 mph SE11.1 kmh SE 6.9 mph11.1 kmh 29.40 in995.6 mb - 0.00 in0.0 mm 0.00 in0.0 mm
10:45 AM 37.6°F3.1°C 34.3°F1.3°C 88% 6.9 mph ESE11.1 kmh ESE 9.2 mph14.8 kmh 29.41 in995.9 mb - 0.00 in0.0 mm 0.00 in0.0 mm
10:50 AM 37.8°F3.2°C 34.2°F1.2°C 87% 8.1 mph SE13.0 kmh SE 11.5 mph18.5 kmh 29.41 in995.9 mb - 0.00 in0.0 mm 0.00 in0.0 mm
10:55 AM 38.7°F3.7°C 35.1°F1.7°C 87% 6.9 mph E11.1 kmh E 8.1 mph13.0 kmh 29.41 in995.9 mb - 0.00 in0.0 mm 0.00 in0.0 mm
11:00 AM 39.6°F4.2°C 36.0°F2.2°C 87% 8.1 mph ESE13.0 kmh ESE 9.2 mph14.8 kmh 29.41 in995.9 mb - 0.00 in0.0 mm 0.00 in0.0 mm
11:10 AM 40.6°F4.8°C 36.8°F2.7°C 86% 9.2 mph SE14.8 kmh SE 10.4 mph16.7 kmh 29.41 in995.9 mb - 0.00 in0.0 mm 0.00 in0.0 mm
11:15 AM 41.1°F5.1°C 36.6°F2.6°C 84% 10.4 mph SE16.7 kmh SE 11.5 mph18.5 kmh 29.41 in995.9 mb - 0.00 in0.0 mm 0.00 in0.0 mm
11:20 AM 41.5°F5.3°C 36.8°F2.7°C 83% 10.4 mph SSE16.7 kmh SSE 11.5 mph18.5 kmh 29.41 in995.9 mb - 0.00 in0.0 mm 0.00 in0.0 mm
11:25 AM 42.1°F5.6°C 37.3°F2.9°C 83% 8.1 mph S13.0 kmh S 6.9 mph11.1 kmh 29.41 in995.9 mb - 0.00 in0.0 mm 0.00 in0.0 mm
11:30 AM 42.3°F5.7°C 37.2°F2.9°C 82% 10.4 mph SSE16.7 kmh SSE 12.7 mph20.4 kmh 29.41 in995.9 mb - 0.00 in0.0 mm 0.00 in0.0 mm
11:35 AM 42.8°F6.0°C 37.7°F3.2°C 82% 9.2 mph SE14.8 kmh SE 12.7 mph20.4 kmh 29.41 in995.9 mb - 0.00 in0.0 mm 0.00 in0.0 mm
11:40 AM 43.2°F6.2°C 37.8°F3.2°C 81% 9.2 mph ESE14.8 kmh ESE 10.4 mph16.7 kmh 29.41 in995.9 mb - 0.00 in0.0 mm 0.00 in0.0 mm
11:45 AM 43.7°F6.5°C 38.3°F3.5°C 81% 8.1 mph SSE13.0 kmh SSE 11.5 mph18.5 kmh 29.40 in995.6 mb - 0.00 in0.0 mm 0.00 in0.0 mm
11:50 AM 43.7°F6.5°C 38.3°F3.5°C 81% 6.9 mph SE11.1 kmh SE 6.9 mph11.1 kmh 29.40 in995.6 mb - 0.00 in0.0 mm 0.00 in0.0 mm
11:55 AM 44.2°F6.8°C 38.8°F3.8°C 81% 12.7 mph SSE20.4 kmh SSE 15.0 mph24.1 kmh 29.40 in995.6 mb - 0.00 in0.0 mm 0.00 in0.0 mm
12:00 PM 44.4°F6.9°C 38.6°F3.7°C 80% 9.2 mph SSE14.8 kmh SSE 10.4 mph16.7 kmh 29.40 in995.6 mb - 0.00 in0.0 mm 0.00 in0.0 mm
12:10 PM 44.6°F7.0°C 38.8°F3.8°C 80% 9.2 mph ESE14.8 kmh ESE 11.5 mph18.5 kmh 29.40 in995.6 mb - 0.00 in0.0 mm 0.00 in0.0 mm
12:15 PM 44.7°F7.1°C 38.5°F3.6°C 79% 6.9 mph SSE11.1 kmh SSE 6.9 mph11.1 kmh 29.39 in995.3 mb - 0.00 in0.0 mm 0.00 in0.0 mm
12:20 PM 44.8°F7.1°C 38.7°F3.7°C 79% 9.2 mph SSE14.8 kmh SSE 11.5 mph18.5 kmh 29.39 in995.3 mb - 0.00 in0.0 mm 0.00 in0.0 mm
12:25 PM 45.0°F7.2°C 38.8°F3.8°C 79% 10.4 mph ESE16.7 kmh ESE 9.2 mph14.8 kmh 29.39 in995.3 mb - 0.00 in0.0 mm 0.00 in0.0 mm
12:30 PM 45.7°F7.6°C 39.2°F4.0°C 78% 8.1 mph SE13.0 kmh SE 10.4 mph16.7 kmh 29.39 in995.3 mb - 0.00 in0.0 mm 0.00 in0.0 mm
12:35 PM 46.2°F7.9°C 39.7°F4.3°C 78% 10.4 mph SE16.7 kmh SE 10.4 mph16.7 kmh 29.39 in995.3 mb - 0.00 in0.0 mm 0.00 in0.0 mm
12:40 PM 46.4°F8.0°C 39.6°F4.2°C 77% 8.1 mph SE13.0 kmh SE 10.4 mph16.7 kmh 29.39 in995.3 mb - 0.00 in0.0 mm 0.00 in0.0 mm
12:45 PM 46.6°F8.1°C 39.8°F4.3°C 77% 8.1 mph SE13.0 kmh SE 6.9 mph11.1 kmh 29.39 in995.3 mb - 0.00 in0.0 mm 0.00 in0.0 mm
12:50 PM 47.1°F8.4°C 39.9°F4.4°C 76% 9.2 mph SSE14.8 kmh SSE 9.2 mph14.8 kmh 29.39 in995.3 mb - 0.00 in0.0 mm 0.00 in0.0 mm
12:55 PM 47.7°F8.7°C 40.1°F4.5°C 75% 6.9 mph ESE11.1 kmh ESE 5.8 mph9.3 kmh 29.39 in995.3 mb - 0.00 in0.0 mm 0.00 in0.0 mm
01:00 PM 47.5°F8.6°C 39.9°F4.4°C 75% 8.1 mph SE13.0 kmh SE 11.5 mph18.5 kmh 29.38 in994.9 mb - 0.00 in0.0 mm 0.00 in0.0 mm
01:10 PM 47.3°F8.5°C 39.8°F4.3°C 75% 9.2 mph SSE14.8 kmh SSE 10.4 mph16.7 kmh 29.38 in994.9 mb - 0.00 in0.0 mm 0.00 in0.0 mm
01:15 PM 47.5°F8.6°C 39.6°F4.2°C 74% 5.8 mph SE9.3 kmh SE 10.4 mph16.7 kmh 29.37 in994.6 mb - 0.00 in0.0 mm 0.00 in0.0 mm
01:20 PM 47.7°F8.7°C 40.1°F4.5°C 75% 6.9 mph SE11.1 kmh SE 9.2 mph14.8 kmh 29.37 in994.6 mb - 0.00 in0.0 mm 0.00 in0.0 mm
01:25 PM 47.7°F8.7°C 40.1°F4.5°C 75% 8.1 mph SE13.0 kmh SE 10.4 mph16.7 kmh 29.37 in994.6 mb - 0.00 in0.0 mm 0.00 in0.0 mm
01:30 PM 47.8°F8.8°C 40.3°F4.6°C 75% 8.1 mph SE13.0 kmh SE 9.2 mph14.8 kmh 29.37 in994.6 mb - 0.00 in0.0 mm 0.00 in0.0 mm
01:35 PM 48.2°F9.0°C 40.3°F4.6°C 74% 6.9 mph S11.1 kmh S 12.7 mph20.4 kmh 29.37 in994.6 mb - 0.00 in0.0 mm 0.00 in0.0 mm
01:40 PM 48.2°F9.0°C 39.9°F4.4°C 73% 8.1 mph SSE13.0 kmh SSE 8.1 mph13.0 kmh 29.37 in994.6 mb - 0.00 in0.0 mm 0.00 in0.0 mm
01:45 PM 48.4°F9.1°C 40.1°F4.5°C 73% 9.2 mph SE14.8 kmh SE 10.4 mph16.7 kmh 29.36 in994.2 mb - 0.00 in0.0 mm 0.00 in0.0 mm
01:50 PM 48.4°F9.1°C 40.1°F4.5°C 73% 5.8 mph SE9.3 kmh SE 16.1 mph25.9 kmh 29.36 in994.2 mb - 0.00 in0.0 mm 0.00 in0.0 mm
01:55 PM 48.2°F9.0°C 39.9°F4.4°C 73% 6.9 mph SE11.1 kmh SE 10.4 mph16.7 kmh 29.36 in994.2 mb - 0.00 in0.0 mm 0.00 in0.0 mm
02:00 PM 48.6°F9.2°C 39.9°F4.4°C 72% 8.1 mph SSE13.0 kmh SSE 11.5 mph18.5 kmh 29.37 in994.6 mb - 0.00 in0.0 mm 0.00 in0.0 mm
02:10 PM 48.8°F9.3°C 40.5°F4.7°C 73% 8.1 mph S13.0 kmh S 8.1 mph13.0 kmh 29.37 in994.6 mb - 0.00 in0.0 mm 0.00 in0.0 mm
02:15 PM 49.3°F9.6°C 41.0°F5.0°C 73% 11.5 mph ESE18.5 kmh ESE 12.7 mph20.4 kmh 29.36 in994.2 mb - 0.00 in0.0 mm 0.00 in0.0 mm
02:20 PM 49.5°F9.7°C 40.8°F4.9°C 72% 8.1 mph S13.0 kmh S 10.4 mph16.7 kmh 29.36 in994.2 mb - 0.00 in0.0 mm 0.00 in0.0 mm
02:25 PM 49.6°F9.8°C 41.0°F5.0°C 72% 6.9 mph SSE11.1 kmh SSE 9.2 mph14.8 kmh 29.36 in994.2 mb - 0.00 in0.0 mm 0.00 in0.0 mm
02:30 PM 50.0°F10.0°C 41.0°F5.0°C 71% 8.1 mph SE13.0 kmh SE 10.4 mph16.7 kmh 29.36 in994.2 mb - 0.00 in0.0 mm 0.00 in0.0 mm
02:35 PM 50.0°F10.0°C 40.6°F4.8°C 70% 8.1 mph SE13.0 kmh SE 9.2 mph14.8 kmh 29.36 in994.2 mb - 0.00 in0.0 mm 0.00 in0.0 mm
02:40 PM 50.1°F10.1°C 40.7°F4.8°C 70% 8.1 mph SSE13.0 kmh SSE 9.2 mph14.8 kmh 29.36 in994.2 mb - 0.00 in0.0 mm 0.00 in0.0 mm
02:55 PM 49.6°F9.8°C 40.6°F4.8°C 71% 10.4 mph SSE16.7 kmh SSE 12.7 mph20.4 kmh 29.36 in994.2 mb - 0.00 in0.0 mm 0.00 in0.0 mm
03:00 PM 49.5°F9.7°C 40.1°F4.5°C 70% 5.8 mph SSE9.3 kmh SSE 9.2 mph14.8 kmh 29.36 in994.2 mb - 0.00 in0.0 mm 0.00 in0.0 mm
03:10 PM 48.9°F9.4°C 39.9°F4.4°C 71% 10.4 mph SSE16.7 kmh SSE 12.7 mph20.4 kmh 29.36 in994.2 mb - 0.00 in0.0 mm 0.00 in0.0 mm
03:15 PM 48.7°F9.3°C 39.4°F4.1°C 70% 5.8 mph SE9.3 kmh SE 5.8 mph9.3 kmh 29.36 in994.2 mb - 0.00 in0.0 mm 0.00 in0.0 mm
03:20 PM 48.6°F9.2°C 39.6°F4.2°C 71% 8.1 mph ESE13.0 kmh ESE 10.4 mph16.7 kmh 29.36 in994.2 mb - 0.00 in0.0 mm 0.00 in0.0 mm
03:25 PM 48.4°F9.1°C 39.4°F4.1°C 71% 8.1 mph ESE13.0 kmh ESE 10.4 mph16.7 kmh 29.36 in994.2 mb - 0.00 in0.0 mm 0.00 in0.0 mm
03:30 PM 48.2°F9.0°C 38.9°F3.8°C 70% 5.8 mph SSE9.3 kmh SSE 8.1 mph13.0 kmh 29.36 in994.2 mb - 0.00 in0.0 mm 0.00 in0.0 mm
03:35 PM 48.1°F8.9°C 39.1°F3.9°C 71% 6.9 mph SE11.1 kmh SE 8.1 mph13.0 kmh 29.36 in994.2 mb - 0.00 in0.0 mm 0.00 in0.0 mm
03:40 PM 47.8°F8.8°C 38.8°F3.8°C 71% 6.9 mph SE11.1 kmh SE 6.9 mph11.1 kmh 29.36 in994.2 mb - 0.00 in0.0 mm 0.00 in0.0 mm
03:45 PM 47.5°F8.6°C 38.9°F3.8°C 72% 5.8 mph SE9.3 kmh SE 6.9 mph11.1 kmh 29.36 in994.2 mb - 0.00 in0.0 mm 0.00 in0.0 mm
03:50 PM 47.3°F8.5°C 38.7°F3.7°C 72% 8.1 mph S13.0 kmh S 9.2 mph14.8 kmh 29.36 in994.2 mb - 0.00 in0.0 mm 0.00 in0.0 mm
03:55 PM 47.1°F8.4°C 38.6°F3.7°C 72% 9.2 mph ESE14.8 kmh ESE 10.4 mph16.7 kmh 29.36 in994.2 mb - 0.00 in0.0 mm 0.00 in0.0 mm
04:00 PM 46.9°F8.3°C 38.4°F3.6°C 72% 8.1 mph SE13.0 kmh SE 11.5 mph18.5 kmh 29.36 in994.2 mb - 0.00 in0.0 mm 0.00 in0.0 mm
04:10 PM 46.5°F8.1°C 38.3°F3.5°C 73% 5.8 mph ESE9.3 kmh ESE 8.1 mph13.0 kmh 29.36 in994.2 mb - 0.00 in0.0 mm 0.00 in0.0 mm
04:15 PM 46.4°F8.0°C 38.2°F3.4°C 73% 5.8 mph ESE9.3 kmh ESE 5.8 mph9.3 kmh 29.36 in994.2 mb - 0.00 in0.0 mm 0.00 in0.0 mm
04:20 PM 46.0°F7.8°C 37.9°F3.3°C 73% 5.8 mph SE9.3 kmh SE 8.1 mph13.0 kmh 29.36 in994.2 mb - 0.00 in0.0 mm 0.00 in0.0 mm
04:25 PM 45.9°F7.7°C 37.7°F3.2°C 73% 5.8 mph SE9.3 kmh SE 8.1 mph13.0 kmh 29.36 in994.2 mb - 0.00 in0.0 mm 0.00 in0.0 mm
04:30 PM 45.7°F7.6°C 37.5°F3.1°C 73% 6.9 mph ESE11.1 kmh ESE 10.4 mph16.7 kmh 29.36 in994.2 mb - 0.00 in0.0 mm 0.00 in0.0 mm
04:35 PM 45.4°F7.4°C 37.2°F2.9°C 73% 8.1 mph ESE13.0 kmh ESE 8.1 mph13.0 kmh 29.36 in994.2 mb - 0.00 in0.0 mm 0.00 in0.0 mm
04:40 PM 45.3°F7.4°C 37.5°F3.1°C 74% 6.9 mph SE11.1 kmh SE 10.4 mph16.7 kmh 29.36 in994.2 mb - 0.00 in0.0 mm 0.00 in0.0 mm
04:45 PM 45.1°F7.3°C 37.3°F2.9°C 74% 6.9 mph SE11.1 kmh SE 8.1 mph13.0 kmh 29.35 in993.9 mb - 0.00 in0.0 mm 0.00 in0.0 mm
04:50 PM 45.0°F7.2°C 36.8°F2.7°C 73% 5.8 mph ESE9.3 kmh ESE 5.8 mph9.3 kmh 29.35 in993.9 mb - 0.00 in0.0 mm 0.00 in0.0 mm
04:55 PM 44.8°F7.1°C 37.0°F2.8°C 74% 6.9 mph ESE11.1 kmh ESE 8.1 mph13.0 kmh 29.35 in993.9 mb - 0.00 in0.0 mm 0.00 in0.0 mm
05:00 PM 44.6°F7.0°C 36.8°F2.7°C 74% 5.8 mph ESE9.3 kmh ESE 6.9 mph11.1 kmh 29.35 in993.9 mb - 0.00 in0.0 mm 0.00 in0.0 mm
05:10 PM 44.4°F6.9°C 36.6°F2.6°C 74% 6.9 mph SE11.1 kmh SE 5.8 mph9.3 kmh 29.35 in993.9 mb - 0.00 in0.0 mm 0.00 in0.0 mm
05:15 PM 44.4°F6.9°C 36.6°F2.6°C 74% 8.1 mph SE13.0 kmh SE 10.4 mph16.7 kmh 29.35 in993.9 mb - 0.00 in0.0 mm 0.00 in0.0 mm
05:20 PM 44.4°F6.9°C 36.6°F2.6°C 74% 8.1 mph SE13.0 kmh SE 8.1 mph13.0 kmh 29.35 in993.9 mb - 0.00 in0.0 mm 0.00 in0.0 mm
05:25 PM 44.2°F6.8°C 36.5°F2.5°C 74% 9.2 mph SSE14.8 kmh SSE 10.4 mph16.7 kmh 29.35 in993.9 mb - 0.00 in0.0 mm 0.00 in0.0 mm
05:30 PM 44.4°F6.9°C 36.3°F2.4°C 73% 8.1 mph ESE13.0 kmh ESE 10.4 mph16.7 kmh 29.34 in993.6 mb - 0.00 in0.0 mm 0.00 in0.0 mm
05:35 PM 44.4°F6.9°C 36.3°F2.4°C 73% 8.1 mph SSE13.0 kmh SSE 10.4 mph16.7 kmh 29.34 in993.6 mb - 0.00 in0.0 mm 0.00 in0.0 mm
05:40 PM 44.5°F6.9°C 36.3°F2.4°C 73% 9.2 mph SE14.8 kmh SE 13.8 mph22.2 kmh 29.34 in993.6 mb - 0.00 in0.0 mm 0.00 in0.0 mm
05:45 PM 44.6°F7.0°C 36.5°F2.5°C 73% 9.2 mph SE14.8 kmh SE 11.5 mph18.5 kmh 29.34 in993.6 mb - 0.00 in0.0 mm 0.00 in0.0 mm
05:50 PM 44.6°F7.0°C 36.5°F2.5°C 73% 8.1 mph SE13.0 kmh SE 10.4 mph16.7 kmh 29.34 in993.6 mb - 0.00 in0.0 mm 0.00 in0.0 mm
05:55 PM 44.6°F7.0°C 36.1°F2.3°C 72% 10.4 mph SSE16.7 kmh SSE 10.4 mph16.7 kmh 29.34 in993.6 mb - 0.00 in0.0 mm 0.00 in0.0 mm
06:00 PM 44.7°F7.1°C 36.3°F2.4°C 72% 11.5 mph SSE18.5 kmh SSE 10.4 mph16.7 kmh 29.34 in993.6 mb - 0.00 in0.0 mm 0.00 in0.0 mm
06:10 PM 44.6°F7.0°C 36.1°F2.3°C 72% 6.9 mph SE11.1 kmh SE 5.8 mph9.3 kmh 29.34 in993.6 mb - 0.00 in0.0 mm 0.00 in0.0 mm
06:15 PM 44.6°F7.0°C 36.1°F2.3°C 72% 9.2 mph SE14.8 kmh SE 10.4 mph16.7 kmh 29.34 in993.6 mb - 0.00 in0.0 mm 0.00 in0.0 mm
06:20 PM 44.4°F6.9°C 36.0°F2.2°C 72% 9.2 mph SSE14.8 kmh SSE 10.4 mph16.7 kmh 29.34 in993.6 mb - 0.00 in0.0 mm 0.00 in0.0 mm
06:25 PM 44.4°F6.9°C 36.0°F2.2°C 72% 9.2 mph SE14.8 kmh SE 10.4 mph16.7 kmh 29.34 in993.6 mb - 0.00 in0.0 mm 0.00 in0.0 mm
06:30 PM 44.4°F6.9°C 36.0°F2.2°C 72% 6.9 mph SE11.1 kmh SE 10.4 mph16.7 kmh 29.34 in993.6 mb - 0.00 in0.0 mm 0.00 in0.0 mm
06:35 PM 44.4°F6.9°C 36.0°F2.2°C 72% 10.4 mph SE16.7 kmh SE 13.8 mph22.2 kmh 29.34 in993.6 mb - 0.00 in0.0 mm 0.00 in0.0 mm
06:40 PM 44.4°F6.9°C 35.9°F2.2°C 72% 8.1 mph SE13.0 kmh SE 11.5 mph18.5 kmh 29.34 in993.6 mb - 0.00 in0.0 mm 0.00 in0.0 mm
06:45 PM 44.2°F6.8°C 35.8°F2.1°C 72% 10.4 mph SE16.7 kmh SE 12.7 mph20.4 kmh 29.34 in993.6 mb - 0.00 in0.0 mm 0.00 in0.0 mm
06:50 PM 44.2°F6.8°C 35.8°F2.1°C 72% 8.1 mph SE13.0 kmh SE 10.4 mph16.7 kmh 29.34 in993.6 mb - 0.00 in0.0 mm 0.00 in0.0 mm
06:55 PM 44.2°F6.8°C 35.8°F2.1°C 72% 9.2 mph SE14.8 kmh SE 11.5 mph18.5 kmh 29.34 in993.6 mb - 0.00 in0.0 mm 0.00 in0.0 mm
07:00 PM 44.3°F6.8°C 35.5°F1.9°C 71% 8.1 mph ESE13.0 kmh ESE 9.2 mph14.8 kmh 29.34 in993.6 mb - 0.00 in0.0 mm 0.00 in0.0 mm
07:10 PM 44.2°F6.8°C 35.4°F1.9°C 71% 11.5 mph SSE18.5 kmh SSE 12.7 mph20.4 kmh 29.34 in993.6 mb - 0.00 in0.0 mm 0.00 in0.0 mm
07:15 PM 44.1°F6.7°C 35.6°F2.0°C 72% 11.5 mph SSE18.5 kmh SSE 15.0 mph24.1 kmh 29.32 in992.9 mb - 0.00 in0.0 mm 0.00 in0.0 mm
07:20 PM 43.9°F6.6°C 35.4°F1.9°C 72% 10.4 mph ESE16.7 kmh ESE 11.5 mph18.5 kmh 29.32 in992.9 mb - 0.00 in0.0 mm 0.00 in0.0 mm
07:25 PM 43.9°F6.6°C 35.4°F1.9°C 72% 9.2 mph SE14.8 kmh SE 10.4 mph16.7 kmh 29.32 in992.9 mb - 0.00 in0.0 mm 0.00 in0.0 mm
07:30 PM 43.9°F6.6°C 35.1°F1.7°C 71% 8.1 mph S13.0 kmh S 11.5 mph18.5 kmh 29.33 in993.2 mb - 0.00 in0.0 mm 0.00 in0.0 mm
07:35 PM 43.9°F6.6°C 35.4°F1.9°C 72% 9.2 mph SE14.8 kmh SE 11.5 mph18.5 kmh 29.33 in993.2 mb - 0.00 in0.0 mm 0.00 in0.0 mm
07:40 PM 43.9°F6.6°C 35.4°F1.9°C 72% 11.5 mph SE18.5 kmh SE 13.8 mph22.2 kmh 29.33 in993.2 mb - 0.00 in0.0 mm 0.00 in0.0 mm
07:45 PM 43.9°F6.6°C 35.4°F1.9°C 72% 9.2 mph SE14.8 kmh SE 13.8 mph22.2 kmh 29.33 in993.2 mb - 0.00 in0.0 mm 0.00 in0.0 mm
07:50 PM 43.9°F6.6°C 35.4°F1.9°C 72% 11.5 mph SSE18.5 kmh SSE 13.8 mph22.2 kmh 29.33 in993.2 mb - 0.00 in0.0 mm 0.00 in0.0 mm
07:55 PM 43.7°F6.5°C 35.3°F1.8°C 72% 9.2 mph SE14.8 kmh SE 10.4 mph16.7 kmh 29.33 in993.2 mb - 0.00 in0.0 mm 0.00 in0.0 mm
08:00 PM 43.9°F6.6°C 35.4°F1.9°C 72% 8.1 mph SE13.0 kmh SE 11.5 mph18.5 kmh 29.33 in993.2 mb - 0.00 in0.0 mm 0.00 in0.0 mm
08:10 PM 43.9°F6.6°C 35.4°F1.9°C 72% 10.4 mph SE16.7 kmh SE 13.8 mph22.2 kmh 29.33 in993.2 mb - 0.00 in0.0 mm 0.00 in0.0 mm
08:15 PM 44.1°F6.7°C 35.6°F2.0°C 72% 8.1 mph SSE13.0 kmh SSE 10.4 mph16.7 kmh 29.33 in993.2 mb - 0.00 in0.0 mm 0.00 in0.0 mm
08:20 PM 44.2°F6.8°C 35.8°F2.1°C 72% 10.4 mph SE16.7 kmh SE 16.1 mph25.9 kmh 29.33 in993.2 mb - 0.00 in0.0 mm 0.00 in0.0 mm
08:25 PM 44.4°F6.9°C 36.0°F2.2°C 72% 8.1 mph SE13.0 kmh SE 11.5 mph18.5 kmh 29.33 in993.2 mb - 0.00 in0.0 mm 0.00 in0.0 mm
08:30 PM 44.6°F7.0°C 36.1°F2.3°C 72% 9.2 mph SSE14.8 kmh SSE 8.1 mph13.0 kmh 29.34 in993.6 mb - 0.00 in0.0 mm 0.00 in0.0 mm
08:35 PM 44.6°F7.0°C 36.1°F2.3°C 72% 9.2 mph S14.8 kmh S 13.8 mph22.2 kmh 29.34 in993.6 mb - 0.00 in0.0 mm 0.00 in0.0 mm
08:40 PM 44.6°F7.0°C 36.1°F2.3°C 72% 10.4 mph SE16.7 kmh SE 11.5 mph18.5 kmh 29.34 in993.6 mb - 0.00 in0.0 mm 0.00 in0.0 mm
08:45 PM 45.0°F7.2°C 36.5°F2.5°C 72% 9.2 mph SSE14.8 kmh SSE 8.1 mph13.0 kmh 29.33 in993.2 mb - 0.00 in0.0 mm 0.00 in0.0 mm
08:50 PM 45.0°F7.2°C 36.1°F2.3°C 71% 9.2 mph SE14.8 kmh SE 10.4 mph16.7 kmh 29.33 in993.2 mb - 0.00 in0.0 mm 0.00 in0.0 mm
08:55 PM 45.3°F7.4°C 36.4°F2.4°C 71% 8.1 mph SE13.0 kmh SE 9.2 mph14.8 kmh 29.33 in993.2 mb - 0.00 in0.0 mm 0.00 in0.0 mm
09:00 PM 45.3°F7.4°C 36.5°F2.5°C 71% 6.9 mph SSW11.1 kmh SSW 8.1 mph13.0 kmh 29.34 in993.6 mb - 0.00 in0.0 mm 0.00 in0.0 mm
09:10 PM 45.3°F7.4°C 36.5°F2.5°C 71% 8.1 mph SE13.0 kmh SE 8.1 mph13.0 kmh 29.34 in993.6 mb - 0.00 in0.0 mm 0.00 in0.0 mm
09:15 PM 45.3°F7.4°C 36.5°F2.5°C 71% 8.1 mph SE13.0 kmh SE 12.7 mph20.4 kmh 29.33 in993.2 mb - 0.00 in0.0 mm 0.00 in0.0 mm
09:20 PM 45.3°F7.4°C 36.5°F2.5°C 71% 11.5 mph S18.5 kmh S 12.7 mph20.4 kmh 29.33 in993.2 mb - 0.00 in0.0 mm 0.00 in0.0 mm
09:25 PM 45.3°F7.4°C 36.5°F2.5°C 71% 11.5 mph SE18.5 kmh SE 10.4 mph16.7 kmh 29.33 in993.2 mb - 0.00 in0.0 mm 0.00 in0.0 mm
09:30 PM 45.3°F7.4°C 36.5°F2.5°C 71% 12.7 mph SSE20.4 kmh SSE 16.1 mph25.9 kmh 29.33 in993.2 mb - 0.00 in0.0 mm 0.00 in0.0 mm
09:35 PM 45.3°F7.4°C 36.1°F2.3°C 70% 11.5 mph SSE18.5 kmh SSE 13.8 mph22.2 kmh 29.33 in993.2 mb - 0.00 in0.0 mm 0.00 in0.0 mm
09:40 PM 45.1°F7.3°C 36.3°F2.4°C 71% 10.4 mph S16.7 kmh S 12.7 mph20.4 kmh 29.33 in993.2 mb - 0.00 in0.0 mm 0.00 in0.0 mm
09:45 PM 45.1°F7.3°C 36.3°F2.4°C 71% 10.4 mph SSE16.7 kmh SSE 10.4 mph16.7 kmh 29.33 in993.2 mb - 0.00 in0.0 mm 0.00 in0.0 mm
09:50 PM 45.1°F7.3°C 36.3°F2.4°C 71% 11.5 mph S18.5 kmh S 9.2 mph14.8 kmh 29.33 in993.2 mb - 0.00 in0.0 mm 0.00 in0.0 mm
09:55 PM 45.0°F7.2°C 36.1°F2.3°C 71% 11.5 mph SE18.5 kmh SE 15.0 mph24.1 kmh 29.33 in993.2 mb - 0.00 in0.0 mm 0.00 in0.0 mm
10:00 PM 45.0°F7.2°C 36.1°F2.3°C 71% 10.4 mph SE16.7 kmh SE 10.4 mph16.7 kmh 29.33 in993.2 mb - 0.00 in0.0 mm 0.00 in0.0 mm
10:10 PM 45.0°F7.2°C 36.1°F2.3°C 71% 10.4 mph S16.7 kmh S 11.5 mph18.5 kmh 29.33 in993.2 mb - 0.00 in0.0 mm 0.00 in0.0 mm
10:15 PM 45.0°F7.2°C 36.1°F2.3°C 71% 9.2 mph SSE14.8 kmh SSE 9.2 mph14.8 kmh 29.33 in993.2 mb - 0.00 in0.0 mm 0.00 in0.0 mm
10:20 PM 45.0°F7.2°C 36.1°F2.3°C 71% 10.4 mph S16.7 kmh S 11.5 mph18.5 kmh 29.33 in993.2 mb - 0.00 in0.0 mm 0.00 in0.0 mm
10:25 PM 45.1°F7.3°C 36.3°F2.4°C 71% 10.4 mph SSW16.7 kmh SSW 15.0 mph24.1 kmh 29.33 in993.2 mb - 0.00 in0.0 mm 0.00 in0.0 mm
10:30 PM 45.1°F7.3°C 36.3°F2.4°C 71% 11.5 mph SE18.5 kmh SE 15.0 mph24.1 kmh 29.33 in993.2 mb - 0.00 in0.0 mm 0.00 in0.0 mm
10:35 PM 45.1°F7.3°C 36.3°F2.4°C 71% 10.4 mph ESE16.7 kmh ESE 19.6 mph31.5 kmh 29.33 in993.2 mb - 0.00 in0.0 mm 0.00 in0.0 mm
10:40 PM 45.1°F7.3°C 36.3°F2.4°C 71% 10.4 mph ESE16.7 kmh ESE 11.5 mph18.5 kmh 29.33 in993.2 mb - 0.00 in0.0 mm 0.00 in0.0 mm
10:45 PM 45.1°F7.3°C 36.3°F2.4°C 71% 10.4 mph SE16.7 kmh SE 10.4 mph16.7 kmh 29.33 in993.2 mb - 0.00 in0.0 mm 0.00 in0.0 mm
10:50 PM 45.3°F7.4°C 36.5°F2.5°C 71% 11.5 mph S18.5 kmh S 13.8 mph22.2 kmh 29.33 in993.2 mb - 0.00 in0.0 mm 0.00 in0.0 mm
10:55 PM 45.5°F7.5°C 36.6°F2.6°C 71% 12.7 mph SSE20.4 kmh SSE 13.8 mph22.2 kmh 29.33 in993.2 mb - 0.00 in0.0 mm 0.00 in0.0 mm
11:00 PM 45.5°F7.5°C 36.6°F2.6°C 71% 11.5 mph SE18.5 kmh SE 12.7 mph20.4 kmh 29.32 in992.9 mb - 0.00 in0.0 mm 0.00 in0.0 mm
11:10 PM 45.5°F7.5°C 36.6°F2.6°C 71% 8.1 mph SSE13.0 kmh SSE 5.8 mph9.3 kmh 29.32 in992.9 mb - 0.00 in0.0 mm 0.00 in0.0 mm
11:15 PM 45.5°F7.5°C 36.6°F2.6°C 71% 11.5 mph SSE18.5 kmh SSE 13.8 mph22.2 kmh 29.33 in993.2 mb - 0.00 in0.0 mm 0.00 in0.0 mm
11:20 PM 45.7°F7.6°C 36.8°F2.7°C 71% 11.5 mph S18.5 kmh S 16.1 mph25.9 kmh 29.33 in993.2 mb - 0.00 in0.0 mm 0.00 in0.0 mm
11:25 PM 45.5°F7.5°C 36.6°F2.6°C 71% 9.2 mph S14.8 kmh S 12.7 mph20.4 kmh 29.33 in993.2 mb - 0.00 in0.0 mm 0.00 in0.0 mm
11:30 PM 45.4°F7.4°C 36.5°F2.5°C 71% 11.5 mph SE18.5 kmh SE 12.7 mph20.4 kmh 29.33 in993.2 mb - 0.00 in0.0 mm 0.00 in0.0 mm
11:35 PM 45.5°F7.5°C 36.6°F2.6°C 71% 10.4 mph SSE16.7 kmh SSE 11.5 mph18.5 kmh 29.33 in993.2 mb - 0.00 in0.0 mm 0.00 in0.0 mm
11:40 PM 45.5°F7.5°C 36.6°F2.6°C 71% 12.7 mph SE20.4 kmh SE 13.8 mph22.2 kmh 29.33 in993.2 mb - 0.00 in0.0 mm 0.00 in0.0 mm
11:45 PM 45.7°F7.6°C 36.8°F2.7°C 71% 10.4 mph SE16.7 kmh SE 11.5 mph18.5 kmh 29.33 in993.2 mb - 0.00 in0.0 mm 0.00 in0.0 mm
11:50 PM 45.9°F7.7°C 37.0°F2.8°C 71% 11.5 mph SE18.5 kmh SE 16.1 mph25.9 kmh 29.33 in993.2 mb - 0.00 in0.0 mm 0.00 in0.0 mm
11:55 PM 45.9°F7.7°C 37.0°F2.8°C 71% 11.5 mph SE18.5 kmh SE 11.5 mph18.5 kmh 29.33 in993.2 mb - 0.00 in0.0 mm 0.00 in0.0 mm